sensor_id;sensor_type;location;lat;lon;timestamp;temperature;humidity
40636;DHT22;26642;55.766;37.828;2022-09-09T00:01:31;11.90;69.10
40636;DHT22;26642;55.766;37.828;2022-09-09T00:04:15;11.90;69.20
40636;DHT22;26642;55.766;37.828;2022-09-09T00:09:18;11.90;69.40
40636;DHT22;26642;55.766;37.828;2022-09-09T00:23:28;11.90;69.50
40636;DHT22;26642;55.766;37.828;2022-09-09T00:32:18;11.90;69.80
40636;DHT22;26642;55.766;37.828;2022-09-09T00:35:17;11.90;69.80
40636;DHT22;26642;55.766;37.828;2022-09-09T00:37:46;11.90;70.00
40636;DHT22;26642;55.766;37.828;2022-09-09T00:40:35;11.90;70.00
40636;DHT22;26642;55.766;37.828;2022-09-09T00:45:55;11.90;69.90
40636;DHT22;26642;55.766;37.828;2022-09-09T00:48:36;11.90;69.90
40636;DHT22;26642;55.766;37.828;2022-09-09T00:51:14;11.90;69.80
40636;DHT22;26642;55.766;37.828;2022-09-09T00:57:05;11.80;69.80
40636;DHT22;26642;55.766;37.828;2022-09-09T01:00:20;11.80;69.80
40636;DHT22;26642;55.766;37.828;2022-09-09T01:05:35;11.80;69.80
40636;DHT22;26642;55.766;37.828;2022-09-09T01:08:25;11.80;70.00
40636;DHT22;26642;55.766;37.828;2022-09-09T01:10:54;11.80;70.10
40636;DHT22;26642;55.766;37.828;2022-09-09T01:13:34;11.80;70.00
40636;DHT22;26642;55.766;37.828;2022-09-09T01:16:08;11.80;70.00
40636;DHT22;26642;55.766;37.828;2022-09-09T01:18:43;11.80;70.00
40636;DHT22;26642;55.766;37.828;2022-09-09T01:21:22;11.80;70.10
40636;DHT22;26642;55.766;37.828;2022-09-09T01:26:54;11.80;70.30
40636;DHT22;26642;55.766;37.828;2022-09-09T01:29:25;11.80;70.40
40636;DHT22;26642;55.766;37.828;2022-09-09T01:32:42;11.70;70.40
40636;DHT22;26642;55.766;37.828;2022-09-09T01:34:48;11.80;70.50
40636;DHT22;26642;55.766;37.828;2022-09-09T01:37:16;11.70;70.60
40636;DHT22;26642;55.766;37.828;2022-09-09T01:39:43;11.80;70.60
40636;DHT22;26642;55.766;37.828;2022-09-09T01:42:15;11.70;70.60
40636;DHT22;26642;55.766;37.828;2022-09-09T01:44:42;11.70;70.80
40636;DHT22;26642;55.766;37.828;2022-09-09T01:47:09;11.70;70.80
40636;DHT22;26642;55.766;37.828;2022-09-09T01:49:47;11.70;70.80
40636;DHT22;26642;55.766;37.828;2022-09-09T01:52:20;11.70;70.70
40636;DHT22;26642;55.766;37.828;2022-09-09T01:54:46;11.70;71.30
40636;DHT22;26642;55.766;37.828;2022-09-09T01:59:58;11.70;70.70
40636;DHT22;26642;55.766;37.828;2022-09-09T02:05:45;11.70;70.70
40636;DHT22;26642;55.766;37.828;2022-09-09T02:08:33;11.70;70.70
40636;DHT22;26642;55.766;37.828;2022-09-09T02:11:13;11.70;70.80
40636;DHT22;26642;55.766;37.828;2022-09-09T02:13:46;11.70;70.90
40636;DHT22;26642;55.766;37.828;2022-09-09T02:18:53;11.70;70.90
40636;DHT22;26642;55.766;37.828;2022-09-09T02:21:30;11.70;70.90
40636;DHT22;26642;55.766;37.828;2022-09-09T02:23:59;11.70;70.90
40636;DHT22;26642;55.766;37.828;2022-09-09T02:26:34;11.70;70.90
40636;DHT22;26642;55.766;37.828;2022-09-09T02:29:09;11.60;70.80
40636;DHT22;26642;55.766;37.828;2022-09-09T02:31:37;11.70;70.90
40636;DHT22;26642;55.766;37.828;2022-09-09T02:34:09;11.60;70.90
40636;DHT22;26642;55.766;37.828;2022-09-09T02:36:37;11.60;70.90
40636;DHT22;26642;55.766;37.828;2022-09-09T02:39:08;11.60;70.80
40636;DHT22;26642;55.766;37.828;2022-09-09T02:41:38;11.60;70.90
40636;DHT22;26642;55.766;37.828;2022-09-09T02:44:12;11.60;70.90
40636;DHT22;26642;55.766;37.828;2022-09-09T02:47:36;11.60;70.90
40636;DHT22;26642;55.766;37.828;2022-09-09T02:53:09;11.60;71.10
40636;DHT22;26642;55.766;37.828;2022-09-09T02:55:47;11.50;71.10
40636;DHT22;26642;55.766;37.828;2022-09-09T02:58:17;11.50;71.10
40636;DHT22;26642;55.766;37.828;2022-09-09T03:00:52;11.50;71.10
40636;DHT22;26642;55.766;37.828;2022-09-09T03:03:20;11.50;71.10
40636;DHT22;26642;55.766;37.828;2022-09-09T03:05:49;11.50;71.20
40636;DHT22;26642;55.766;37.828;2022-09-09T03:08:16;11.50;71.20
40636;DHT22;26642;55.766;37.828;2022-09-09T03:10:43;11.50;71.20
40636;DHT22;26642;55.766;37.828;2022-09-09T03:13:12;11.50;71.30
40636;DHT22;26642;55.766;37.828;2022-09-09T03:15:41;11.50;71.40
40636;DHT22;26642;55.766;37.828;2022-09-09T03:18:11;11.50;71.30
40636;DHT22;26642;55.766;37.828;2022-09-09T03:20:37;11.50;71.20
40636;DHT22;26642;55.766;37.828;2022-09-09T03:23:03;11.50;71.20
40636;DHT22;26642;55.766;37.828;2022-09-09T03:25:29;11.50;71.20
40636;DHT22;26642;55.766;37.828;2022-09-09T03:27:56;11.50;71.20
40636;DHT22;26642;55.766;37.828;2022-09-09T03:30:25;11.40;71.20
40636;DHT22;26642;55.766;37.828;2022-09-09T03:32:53;11.40;71.30
40636;DHT22;26642;55.766;37.828;2022-09-09T03:35:22;11.40;71.20
40636;DHT22;26642;55.766;37.828;2022-09-09T03:37:48;11.40;71.30
40636;DHT22;26642;55.766;37.828;2022-09-09T03:40:15;11.40;71.30
40636;DHT22;26642;55.766;37.828;2022-09-09T03:42:44;11.40;71.40
40636;DHT22;26642;55.766;37.828;2022-09-09T03:45:10;11.40;71.50
40636;DHT22;26642;55.766;37.828;2022-09-09T03:47:38;11.40;71.60
40636;DHT22;26642;55.766;37.828;2022-09-09T03:50:07;11.40;71.80
40636;DHT22;26642;55.766;37.828;2022-09-09T03:52:39;11.40;72.20
40636;DHT22;26642;55.766;37.828;2022-09-09T03:55:12;11.30;72.40
40636;DHT22;26642;55.766;37.828;2022-09-09T03:57:38;11.30;72.50
40636;DHT22;26642;55.766;37.828;2022-09-09T04:00:08;11.30;72.50
40636;DHT22;26642;55.766;37.828;2022-09-09T04:02:48;11.30;72.60
40636;DHT22;26642;55.766;37.828;2022-09-09T04:05:15;11.30;72.70
40636;DHT22;26642;55.766;37.828;2022-09-09T04:07:43;11.30;72.80
40636;DHT22;26642;55.766;37.828;2022-09-09T04:10:09;11.30;72.80
40636;DHT22;26642;55.766;37.828;2022-09-09T04:12:37;11.30;73.00
40636;DHT22;26642;55.766;37.828;2022-09-09T04:15:04;11.40;73.00
40636;DHT22;26642;55.766;37.828;2022-09-09T04:17:31;11.40;72.90
40636;DHT22;26642;55.766;37.828;2022-09-09T04:19:57;11.40;72.80
40636;DHT22;26642;55.766;37.828;2022-09-09T04:22:23;11.30;72.70
40636;DHT22;26642;55.766;37.828;2022-09-09T04:25:08;11.30;72.70
40636;DHT22;26642;55.766;37.828;2022-09-09T04:27:34;11.30;72.60
40636;DHT22;26642;55.766;37.828;2022-09-09T04:30:00;11.40;72.80
40636;DHT22;26642;55.766;37.828;2022-09-09T04:32:32;11.30;72.90
40636;DHT22;26642;55.766;37.828;2022-09-09T04:34:59;11.30;73.00
40636;DHT22;26642;55.766;37.828;2022-09-09T04:37:25;11.40;73.00
40636;DHT22;26642;55.766;37.828;2022-09-09T04:39:51;11.40;73.10
40636;DHT22;26642;55.766;37.828;2022-09-09T04:42:17;11.40;73.20
40636;DHT22;26642;55.766;37.828;2022-09-09T04:44:45;11.40;73.00
40636;DHT22;26642;55.766;37.828;2022-09-09T04:47:11;11.40;73.00
40636;DHT22;26642;55.766;37.828;2022-09-09T04:49:39;11.40;72.80
40636;DHT22;26642;55.766;37.828;2022-09-09T04:52:05;11.40;72.60
40636;DHT22;26642;55.766;37.828;2022-09-09T04:54:33;11.40;72.80
40636;DHT22;26642;55.766;37.828;2022-09-09T04:56:59;11.40;73.20
40636;DHT22;26642;55.766;37.828;2022-09-09T04:59:26;11.40;73.10
40636;DHT22;26642;55.766;37.828;2022-09-09T05:01:55;11.40;73.20
40636;DHT22;26642;55.766;37.828;2022-09-09T05:04:21;11.50;73.20
40636;DHT22;26642;55.766;37.828;2022-09-09T05:06:47;11.70;73.10
40636;DHT22;26642;55.766;37.828;2022-09-09T05:09:14;11.80;72.80
40636;DHT22;26642;55.766;37.828;2022-09-09T05:11:40;12.10;72.70
40636;DHT22;26642;55.766;37.828;2022-09-09T05:14:11;12.30;72.10
40636;DHT22;26642;55.766;37.828;2022-09-09T05:16:37;12.60;71.50
40636;DHT22;26642;55.766;37.828;2022-09-09T05:19:04;12.80;70.80
40636;DHT22;26642;55.766;37.828;2022-09-09T05:21:40;13.00;70.30
40636;DHT22;26642;55.766;37.828;2022-09-09T05:24:07;13.20;69.90
40636;DHT22;26642;55.766;37.828;2022-09-09T05:26:34;13.40;69.30
40636;DHT22;26642;55.766;37.828;2022-09-09T05:29:02;13.60;68.90
40636;DHT22;26642;55.766;37.828;2022-09-09T05:31:30;13.80;68.30
40636;DHT22;26642;55.766;37.828;2022-09-09T05:33:59;14.00;68.80
40636;DHT22;26642;55.766;37.828;2022-09-09T05:36:25;14.20;67.90
40636;DHT22;26642;55.766;37.828;2022-09-09T05:38:54;14.40;67.70
40636;DHT22;26642;55.766;37.828;2022-09-09T05:41:21;14.60;67.30
40636;DHT22;26642;55.766;37.828;2022-09-09T05:43:49;14.70;67.10
40636;DHT22;26642;55.766;37.828;2022-09-09T05:46:21;14.90;67.00
40636;DHT22;26642;55.766;37.828;2022-09-09T05:48:50;15.10;66.60
40636;DHT22;26642;55.766;37.828;2022-09-09T05:51:21;15.30;66.20
40636;DHT22;26642;55.766;37.828;2022-09-09T05:53:48;15.40;65.50
40636;DHT22;26642;55.766;37.828;2022-09-09T05:56:16;15.60;65.30
40636;DHT22;26642;55.766;37.828;2022-09-09T05:58:43;15.80;65.00
40636;DHT22;26642;55.766;37.828;2022-09-09T06:01:14;15.90;64.40
40636;DHT22;26642;55.766;37.828;2022-09-09T06:03:42;16.10;64.40
40636;DHT22;26642;55.766;37.828;2022-09-09T06:06:14;16.30;63.90
40636;DHT22;26642;55.766;37.828;2022-09-09T06:08:42;16.50;63.70
40636;DHT22;26642;55.766;37.828;2022-09-09T06:11:22;16.60;63.60
40636;DHT22;26642;55.766;37.828;2022-09-09T06:13:49;16.80;63.10
40636;DHT22;26642;55.766;37.828;2022-09-09T06:16:18;16.90;63.00
40636;DHT22;26642;55.766;37.828;2022-09-09T06:18:45;17.00;62.70
40636;DHT22;26642;55.766;37.828;2022-09-09T06:21:35;17.20;62.20
40636;DHT22;26642;55.766;37.828;2022-09-09T06:24:07;17.30;61.70
40636;DHT22;26642;55.766;37.828;2022-09-09T06:26:38;17.50;61.20
40636;DHT22;26642;55.766;37.828;2022-09-09T06:29:08;17.70;60.60
40636;DHT22;26642;55.766;37.828;2022-09-09T06:31:36;17.90;60.70
40636;DHT22;26642;55.766;37.828;2022-09-09T06:34:20;18.10;59.00
40636;DHT22;26642;55.766;37.828;2022-09-09T06:36:50;18.30;57.20
40636;DHT22;26642;55.766;37.828;2022-09-09T06:39:17;18.30;54.90
40636;DHT22;26642;55.766;37.828;2022-09-09T06:41:44;18.50;55.00
40636;DHT22;26642;55.766;37.828;2022-09-09T06:44:45;18.50;54.10
40636;DHT22;26642;55.766;37.828;2022-09-09T06:47:18;18.50;53.80
40636;DHT22;26642;55.766;37.828;2022-09-09T06:49:45;18.60;53.60
40636;DHT22;26642;55.766;37.828;2022-09-09T06:52:11;18.60;52.80
40636;DHT22;26642;55.766;37.828;2022-09-09T06:54:38;18.70;52.70
40636;DHT22;26642;55.766;37.828;2022-09-09T06:57:05;18.80;52.30
40636;DHT22;26642;55.766;37.828;2022-09-09T06:59:33;18.70;51.50
40636;DHT22;26642;55.766;37.828;2022-09-09T07:02:00;18.50;52.20
40636;DHT22;26642;55.766;37.828;2022-09-09T07:04:28;18.40;51.80
40636;DHT22;26642;55.766;37.828;2022-09-09T07:06:54;18.30;52.00
40636;DHT22;26642;55.766;37.828;2022-09-09T07:09:23;18.20;52.10
40636;DHT22;26642;55.766;37.828;2022-09-09T07:11:52;18.30;51.90
40636;DHT22;26642;55.766;37.828;2022-09-09T07:14:22;18.40;52.30
40636;DHT22;26642;55.766;37.828;2022-09-09T07:16:53;18.40;52.70
40636;DHT22;26642;55.766;37.828;2022-09-09T07:19:26;18.50;52.80
40636;DHT22;26642;55.766;37.828;2022-09-09T07:21:53;18.50;52.40
40636;DHT22;26642;55.766;37.828;2022-09-09T07:24:21;18.50;53.70
40636;DHT22;26642;55.766;37.828;2022-09-09T07:26:48;18.50;52.10
40636;DHT22;26642;55.766;37.828;2022-09-09T07:29:15;18.50;49.20
40636;DHT22;26642;55.766;37.828;2022-09-09T07:31:41;18.60;48.20
40636;DHT22;26642;55.766;37.828;2022-09-09T07:34:12;18.50;46.80
40636;DHT22;26642;55.766;37.828;2022-09-09T07:36:39;18.60;47.60
40636;DHT22;26642;55.766;37.828;2022-09-09T07:39:09;18.60;47.70
40636;DHT22;26642;55.766;37.828;2022-09-09T07:41:39;18.60;47.20
40636;DHT22;26642;55.766;37.828;2022-09-09T07:44:13;18.70;47.10
40636;DHT22;26642;55.766;37.828;2022-09-09T07:46:40;18.80;46.00
40636;DHT22;26642;55.766;37.828;2022-09-09T07:49:09;18.60;44.90
40636;DHT22;26642;55.766;37.828;2022-09-09T07:51:42;18.40;45.10
40636;DHT22;26642;55.766;37.828;2022-09-09T07:54:14;18.30;45.30
40636;DHT22;26642;55.766;37.828;2022-09-09T07:56:43;18.30;46.20
40636;DHT22;26642;55.766;37.828;2022-09-09T07:59:11;18.30;48.00
40636;DHT22;26642;55.766;37.828;2022-09-09T08:01:48;18.30;49.00
40636;DHT22;26642;55.766;37.828;2022-09-09T08:04:19;18.40;49.20
40636;DHT22;26642;55.766;37.828;2022-09-09T08:06:55;18.40;49.50
40636;DHT22;26642;55.766;37.828;2022-09-09T08:09:24;18.20;49.10
40636;DHT22;26642;55.766;37.828;2022-09-09T08:11:53;18.20;49.10
40636;DHT22;26642;55.766;37.828;2022-09-09T08:14:20;18.00;48.90
40636;DHT22;26642;55.766;37.828;2022-09-09T08:16:48;18.00;49.50
40636;DHT22;26642;55.766;37.828;2022-09-09T08:19:21;17.90;48.70
40636;DHT22;26642;55.766;37.828;2022-09-09T08:21:47;17.90;48.50
40636;DHT22;26642;55.766;37.828;2022-09-09T08:24:18;17.70;48.00
40636;DHT22;26642;55.766;37.828;2022-09-09T08:26:48;17.60;47.60
40636;DHT22;26642;55.766;37.828;2022-09-09T08:29:17;17.60;48.00
40636;DHT22;26642;55.766;37.828;2022-09-09T08:31:47;17.60;47.60
40636;DHT22;26642;55.766;37.828;2022-09-09T08:34:14;17.50;47.70
40636;DHT22;26642;55.766;37.828;2022-09-09T08:36:43;17.50;48.50
40636;DHT22;26642;55.766;37.828;2022-09-09T08:39:16;17.50;49.40
40636;DHT22;26642;55.766;37.828;2022-09-09T08:52:13;17.30;50.20
40636;DHT22;26642;55.766;37.828;2022-09-09T08:54:42;17.20;50.30
40636;DHT22;26642;55.766;37.828;2022-09-09T08:57:14;17.10;51.20
40636;DHT22;26642;55.766;37.828;2022-09-09T08:59:44;17.10;51.60
40636;DHT22;26642;55.766;37.828;2022-09-09T09:02:42;17.10;51.70
40636;DHT22;26642;55.766;37.828;2022-09-09T09:05:33;17.10;51.30
40636;DHT22;26642;55.766;37.828;2022-09-09T09:08:25;17.10;51.50
40636;DHT22;26642;55.766;37.828;2022-09-09T09:10:55;17.00;52.20
40636;DHT22;26642;55.766;37.828;2022-09-09T09:13:38;17.00;51.70
40636;DHT22;26642;55.766;37.828;2022-09-09T09:16:22;16.90;51.30
40636;DHT22;26642;55.766;37.828;2022-09-09T09:18:51;16.80;50.40
40636;DHT22;26642;55.766;37.828;2022-09-09T09:21:36;16.70;50.00
40636;DHT22;26642;55.766;37.828;2022-09-09T09:24:12;16.60;49.70
40636;DHT22;26642;55.766;37.828;2022-09-09T09:26:43;16.50;50.20
40636;DHT22;26642;55.766;37.828;2022-09-09T09:29:23;16.40;49.80
40636;DHT22;26642;55.766;37.828;2022-09-09T09:32:01;16.30;50.20
40636;DHT22;26642;55.766;37.828;2022-09-09T09:34:28;16.20;50.50
40636;DHT22;26642;55.766;37.828;2022-09-09T09:36:57;16.20;50.70
40636;DHT22;26642;55.766;37.828;2022-09-09T09:39:31;16.10;50.20
40636;DHT22;26642;55.766;37.828;2022-09-09T09:42:12;16.10;50.20
40636;DHT22;26642;55.766;37.828;2022-09-09T09:44:44;16.10;50.30
40636;DHT22;26642;55.766;37.828;2022-09-09T09:47:21;16.20;51.30
40636;DHT22;26642;55.766;37.828;2022-09-09T09:50:17;16.20;51.00
40636;DHT22;26642;55.766;37.828;2022-09-09T09:52:56;16.20;51.10
40636;DHT22;26642;55.766;37.828;2022-09-09T09:55:32;16.20;51.40
40636;DHT22;26642;55.766;37.828;2022-09-09T09:58:06;16.20;52.00
40636;DHT22;26642;55.766;37.828;2022-09-09T10:00:33;16.30;52.10
40636;DHT22;26642;55.766;37.828;2022-09-09T10:03:34;16.20;52.50
40636;DHT22;26642;55.766;37.828;2022-09-09T10:06:06;16.20;52.90
40636;DHT22;26642;55.766;37.828;2022-09-09T10:08:43;16.20;51.80
40636;DHT22;26642;55.766;37.828;2022-09-09T10:14:20;16.00;51.10
40636;DHT22;26642;55.766;37.828;2022-09-09T10:20:16;16.00;51.60
40636;DHT22;26642;55.766;37.828;2022-09-09T10:23:10;16.00;52.30
40636;DHT22;26642;55.766;37.828;2022-09-09T10:36:43;16.00;51.80
40636;DHT22;26642;55.766;37.828;2022-09-09T10:39:38;16.00;52.00
40636;DHT22;26642;55.766;37.828;2022-09-09T10:42:15;15.90;50.90
40636;DHT22;26642;55.766;37.828;2022-09-09T10:47:53;15.90;52.20
40636;DHT22;26642;55.766;37.828;2022-09-09T10:53:21;15.90;53.40
40636;DHT22;26642;55.766;37.828;2022-09-09T10:55:55;15.90;53.10
40636;DHT22;26642;55.766;37.828;2022-09-09T10:58:31;16.00;53.10
40636;DHT22;26642;55.766;37.828;2022-09-09T11:01:10;16.00;53.30
40636;DHT22;26642;55.766;37.828;2022-09-09T11:03:39;16.00;53.00
40636;DHT22;26642;55.766;37.828;2022-09-09T11:06:14;16.00;52.60
40636;DHT22;26642;55.766;37.828;2022-09-09T11:08:40;15.90;51.60
40636;DHT22;26642;55.766;37.828;2022-09-09T11:11:11;15.90;51.40
40636;DHT22;26642;55.766;37.828;2022-09-09T11:13:44;15.80;50.80
40636;DHT22;26642;55.766;37.828;2022-09-09T11:18:49;15.70;51.70
40636;DHT22;26642;55.766;37.828;2022-09-09T11:21:28;15.80;52.20
40636;DHT22;26642;55.766;37.828;2022-09-09T11:24:01;15.70;51.30
40636;DHT22;26642;55.766;37.828;2022-09-09T11:26:41;15.60;51.50
40636;DHT22;26642;55.766;37.828;2022-09-09T11:32:20;15.60;51.70
40636;DHT22;26642;55.766;37.828;2022-09-09T11:34:57;15.60;51.80
40636;DHT22;26642;55.766;37.828;2022-09-09T11:40:19;15.60;52.70
40636;DHT22;26642;55.766;37.828;2022-09-09T11:42:47;15.60;52.70
40636;DHT22;26642;55.766;37.828;2022-09-09T11:45:23;15.60;52.60
40636;DHT22;26642;55.766;37.828;2022-09-09T11:47:59;15.60;52.90
40636;DHT22;26642;55.766;37.828;2022-09-09T11:55:39;15.60;51.60
40636;DHT22;26642;55.766;37.828;2022-09-09T11:58:16;15.60;51.80
40636;DHT22;26642;55.766;37.828;2022-09-09T12:00:43;15.60;51.30
40636;DHT22;26642;55.766;37.828;2022-09-09T12:06:13;15.60;52.20
40636;DHT22;26642;55.766;37.828;2022-09-09T12:08:43;15.60;52.30
40636;DHT22;26642;55.766;37.828;2022-09-09T12:11:11;15.60;52.10
40636;DHT22;26642;55.766;37.828;2022-09-09T12:13:37;15.60;51.90
40636;DHT22;26642;55.766;37.828;2022-09-09T12:16:03;15.70;52.30
40636;DHT22;26642;55.766;37.828;2022-09-09T12:18:39;15.70;52.20
40636;DHT22;26642;55.766;37.828;2022-09-09T12:21:50;15.80;52.00
40636;DHT22;26642;55.766;37.828;2022-09-09T12:24:37;15.80;51.80
40636;DHT22;26642;55.766;37.828;2022-09-09T12:27:21;15.80;51.50
40636;DHT22;26642;55.766;37.828;2022-09-09T12:30:09;15.70;50.10
40636;DHT22;26642;55.766;37.828;2022-09-09T12:32:35;15.60;49.60
40636;DHT22;26642;55.766;37.828;2022-09-09T12:37:37;15.60;49.70
40636;DHT22;26642;55.766;37.828;2022-09-09T12:40:14;15.50;49.10
40636;DHT22;26642;55.766;37.828;2022-09-09T12:42:44;15.50;49.20
40636;DHT22;26642;55.766;37.828;2022-09-09T12:47:57;15.40;49.20
40636;DHT22;26642;55.766;37.828;2022-09-09T12:50:48;15.50;50.00
40636;DHT22;26642;55.766;37.828;2022-09-09T12:55:55;15.50;50.30
40636;DHT22;26642;55.766;37.828;2022-09-09T12:58:22;15.60;50.70
40636;DHT22;26642;55.766;37.828;2022-09-09T13:00:51;15.60;51.00
40636;DHT22;26642;55.766;37.828;2022-09-09T13:03:20;15.50;51.20
40636;DHT22;26642;55.766;37.828;2022-09-09T13:05:51;15.50;51.30
40636;DHT22;26642;55.766;37.828;2022-09-09T13:08:17;15.50;51.60
40636;DHT22;26642;55.766;37.828;2022-09-09T13:11:08;15.50;51.90
40636;DHT22;26642;55.766;37.828;2022-09-09T13:13:40;15.50;51.90
40636;DHT22;26642;55.766;37.828;2022-09-09T13:18:56;15.50;52.10
40636;DHT22;26642;55.766;37.828;2022-09-09T13:21:36;15.60;51.90
40636;DHT22;26642;55.766;37.828;2022-09-09T13:29:22;15.50;52.10
40636;DHT22;26642;55.766;37.828;2022-09-09T13:31:48;15.60;52.30
40636;DHT22;26642;55.766;37.828;2022-09-09T13:34:32;15.60;52.30
40636;DHT22;26642;55.766;37.828;2022-09-09T13:37:06;15.60;52.50
40636;DHT22;26642;55.766;37.828;2022-09-09T13:39:34;15.60;52.80
40636;DHT22;26642;55.766;37.828;2022-09-09T13:42:02;15.60;52.70
40636;DHT22;26642;55.766;37.828;2022-09-09T13:44:31;15.60;52.50
40636;DHT22;26642;55.766;37.828;2022-09-09T13:47:21;15.70;52.60
40636;DHT22;26642;55.766;37.828;2022-09-09T13:49:48;15.60;52.20
40636;DHT22;26642;55.766;37.828;2022-09-09T13:52:16;15.50;51.30
40636;DHT22;26642;55.766;37.828;2022-09-09T13:54:48;15.50;51.10
40636;DHT22;26642;55.766;37.828;2022-09-09T13:57:16;15.50;50.80
40636;DHT22;26642;55.766;37.828;2022-09-09T13:59:45;15.50;50.40
40636;DHT22;26642;55.766;37.828;2022-09-09T14:02:11;15.50;50.80
40636;DHT22;26642;55.766;37.828;2022-09-09T14:04:37;15.50;51.10
40636;DHT22;26642;55.766;37.828;2022-09-09T14:07:03;15.50;51.50
40636;DHT22;26642;55.766;37.828;2022-09-09T14:09:29;15.50;51.60
40636;DHT22;26642;55.766;37.828;2022-09-09T14:11:55;15.50;51.50
40636;DHT22;26642;55.766;37.828;2022-09-09T14:14:21;15.50;51.70
40636;DHT22;26642;55.766;37.828;2022-09-09T14:16:47;15.50;51.80
40636;DHT22;26642;55.766;37.828;2022-09-09T14:19:13;15.50;52.00
40636;DHT22;26642;55.766;37.828;2022-09-09T14:21:39;15.50;52.50
40636;DHT22;26642;55.766;37.828;2022-09-09T14:24:05;15.50;52.70
40636;DHT22;26642;55.766;37.828;2022-09-09T14:26:31;15.50;52.70
40636;DHT22;26642;55.766;37.828;2022-09-09T14:28:58;15.50;52.60
40636;DHT22;26642;55.766;37.828;2022-09-09T14:31:25;15.50;52.80
40636;DHT22;26642;55.766;37.828;2022-09-09T14:33:51;15.50;52.80
40636;DHT22;26642;55.766;37.828;2022-09-09T14:36:18;15.50;53.00
40636;DHT22;26642;55.766;37.828;2022-09-09T14:38:44;15.50;53.00
40636;DHT22;26642;55.766;37.828;2022-09-09T14:41:15;15.50;53.00
40636;DHT22;26642;55.766;37.828;2022-09-09T14:43:45;15.50;53.00
40636;DHT22;26642;55.766;37.828;2022-09-09T14:46:14;15.50;53.10
40636;DHT22;26642;55.766;37.828;2022-09-09T14:48:40;15.40;53.20
40636;DHT22;26642;55.766;37.828;2022-09-09T14:51:12;15.40;53.00
40636;DHT22;26642;55.766;37.828;2022-09-09T14:53:39;15.40;53.10
40636;DHT22;26642;55.766;37.828;2022-09-09T14:56:11;15.40;55.90
40636;DHT22;26642;55.766;37.828;2022-09-09T14:58:37;15.50;56.70
40636;DHT22;26642;55.766;37.828;2022-09-09T15:01:09;15.40;55.90
40636;DHT22;26642;55.766;37.828;2022-09-09T15:03:37;15.40;55.20
40636;DHT22;26642;55.766;37.828;2022-09-09T15:06:12;15.40;54.90
40636;DHT22;26642;55.766;37.828;2022-09-09T15:08:41;15.30;54.60
40636;DHT22;26642;55.766;37.828;2022-09-09T15:11:07;15.30;54.60
40636;DHT22;26642;55.766;37.828;2022-09-09T15:13:34;15.30;54.70
40636;DHT22;26642;55.766;37.828;2022-09-09T15:16:07;15.30;54.50
40636;DHT22;26642;55.766;37.828;2022-09-09T15:18:33;15.20;54.50
40636;DHT22;26642;55.766;37.828;2022-09-09T15:21:03;15.20;54.60
40636;DHT22;26642;55.766;37.828;2022-09-09T15:23:34;15.10;54.40
40636;DHT22;26642;55.766;37.828;2022-09-09T15:26:01;15.10;54.00
40636;DHT22;26642;55.766;37.828;2022-09-09T15:28:28;15.00;54.20
40636;DHT22;26642;55.766;37.828;2022-09-09T15:30:54;15.10;54.30
40636;DHT22;26642;55.766;37.828;2022-09-09T15:33:22;15.00;54.70
40636;DHT22;26642;55.766;37.828;2022-09-09T15:35:48;15.00;55.00
40636;DHT22;26642;55.766;37.828;2022-09-09T15:38:16;15.00;55.20
40636;DHT22;26642;55.766;37.828;2022-09-09T15:40:43;15.00;55.00
40636;DHT22;26642;55.766;37.828;2022-09-09T15:43:09;14.90;55.20
40636;DHT22;26642;55.766;37.828;2022-09-09T15:45:37;14.90;55.50
40636;DHT22;26642;55.766;37.828;2022-09-09T15:48:03;14.80;55.70
40636;DHT22;26642;55.766;37.828;2022-09-09T15:50:30;14.80;56.00
40636;DHT22;26642;55.766;37.828;2022-09-09T15:52:58;14.80;56.20
40636;DHT22;26642;55.766;37.828;2022-09-09T15:55:25;14.70;56.50
40636;DHT22;26642;55.766;37.828;2022-09-09T15:57:51;14.70;56.90
40636;DHT22;26642;55.766;37.828;2022-09-09T16:00:19;14.70;57.30
40636;DHT22;26642;55.766;37.828;2022-09-09T16:02:47;14.60;57.40
40636;DHT22;26642;55.766;37.828;2022-09-09T16:05:13;14.60;57.50
40636;DHT22;26642;55.766;37.828;2022-09-09T16:07:39;14.60;57.70
40636;DHT22;26642;55.766;37.828;2022-09-09T16:10:09;14.50;57.90
40636;DHT22;26642;55.766;37.828;2022-09-09T16:12:35;14.50;58.30
40636;DHT22;26642;55.766;37.828;2022-09-09T16:15:01;14.50;58.70
40636;DHT22;26642;55.766;37.828;2022-09-09T16:17:27;14.50;58.60
40636;DHT22;26642;55.766;37.828;2022-09-09T16:19:53;14.40;59.20
40636;DHT22;26642;55.766;37.828;2022-09-09T16:22:20;14.40;59.70
40636;DHT22;26642;55.766;37.828;2022-09-09T16:24:46;14.30;59.40
40636;DHT22;26642;55.766;37.828;2022-09-09T16:27:12;14.30;59.90
40636;DHT22;26642;55.766;37.828;2022-09-09T16:29:38;14.30;60.50
40636;DHT22;26642;55.766;37.828;2022-09-09T16:32:04;14.30;61.30
40636;DHT22;26642;55.766;37.828;2022-09-09T16:34:30;14.30;64.30
40636;DHT22;26642;55.766;37.828;2022-09-09T16:36:56;14.40;67.50
40636;DHT22;26642;55.766;37.828;2022-09-09T16:39:22;14.40;67.20
40636;DHT22;26642;55.766;37.828;2022-09-09T16:41:48;14.40;66.40
40636;DHT22;26642;55.766;37.828;2022-09-09T16:44:17;14.50;65.80
40636;DHT22;26642;55.766;37.828;2022-09-09T16:46:45;14.50;65.70
40636;DHT22;26642;55.766;37.828;2022-09-09T16:49:12;14.50;65.30
40636;DHT22;26642;55.766;37.828;2022-09-09T16:51:41;14.50;64.30
40636;DHT22;26642;55.766;37.828;2022-09-09T16:54:08;14.50;63.30
40636;DHT22;26642;55.766;37.828;2022-09-09T16:56:40;14.50;62.70
40636;DHT22;26642;55.766;37.828;2022-09-09T16:59:19;14.50;62.50
40636;DHT22;26642;55.766;37.828;2022-09-09T17:01:48;14.50;61.40
40636;DHT22;26642;55.766;37.828;2022-09-09T17:04:20;14.50;60.80
40636;DHT22;26642;55.766;37.828;2022-09-09T17:06:51;14.50;60.50
40636;DHT22;26642;55.766;37.828;2022-09-09T17:09:18;14.50;60.40
40636;DHT22;26642;55.766;37.828;2022-09-09T17:11:45;14.50;60.40
40636;DHT22;26642;55.766;37.828;2022-09-09T17:14:14;14.40;60.40
40636;DHT22;26642;55.766;37.828;2022-09-09T17:16:41;14.40;60.10
40636;DHT22;26642;55.766;37.828;2022-09-09T17:19:07;14.40;60.10
40636;DHT22;26642;55.766;37.828;2022-09-09T17:21:34;14.40;60.10
40636;DHT22;26642;55.766;37.828;2022-09-09T17:24:02;14.40;60.60
40636;DHT22;26642;55.766;37.828;2022-09-09T17:26:30;14.40;60.20
40636;DHT22;26642;55.766;37.828;2022-09-09T17:28:59;14.40;60.20
40636;DHT22;26642;55.766;37.828;2022-09-09T17:31:27;14.40;60.10